Time;durP1;ratioP1;P1;durP2;ratioP2;P2;SDS_P1;SDS_P2;PMS_P1;PMS_P2;Temp;Humidity;BMP_temperature;BMP_pressure;BME280_temperature;BME280_humidity;BME280_pressure;Samples;Min_cycle;Max_cycle;Signal;HPM_P1;HPM_P2
2022/01/10 00:00:34;;;;;;;6.93;5.50;;;;;;;5.33;78.10;98318.06;5093199;28;20044;-70
2022/01/10 00:03:01;;;;;;;5.90;4.68;;;;;;;5.28;78.67;98318.41;5093171;28;20024;-70
2022/01/10 00:05:26;;;;;;;8.93;4.93;;;;;;;5.33;78.99;98320.84;5092550;28;20027;-70
2022/01/10 00:07:52;;;;;;;7.43;5.07;;;;;;;5.25;78.90;98317.16;5092549;28;20024;-71
2022/01/10 00:10:18;;;;;;;8.50;6.30;;;;;;;5.36;79.28;98311.78;5092510;28;20073;-70
2022/01/10 00:12:45;;;;;;;7.68;5.35;;;;;;;5.26;79.27;98305.75;5092356;28;20067;-70
2022/01/10 00:15:11;;;;;;;23.60;10.25;;;;;;;5.34;80.25;98306.66;5093687;28;20474;-70
2022/01/10 00:17:38;;;;;;;69.75;23.65;;;;;;;5.38;80.21;98309.44;5092422;28;20115;-70
2022/01/10 00:20:08;;;;;;;103.32;34.30;;;;;;;5.43;80.07;98309.13;5093991;28;20035;-72
2022/01/10 00:22:35;;;;;;;65.32;22.58;;;;;;;5.47;80.60;98304.44;5092917;28;20335;-72
2022/01/10 00:25:00;;;;;;;25.40;10.48;;;;;;;5.52;81.07;98306.88;5092377;28;20067;-72
2022/01/10 00:27:26;;;;;;;12.07;8.13;;;;;;;5.60;80.44;98303.06;5093904;28;20123;-70
2022/01/10 00:29:52;;;;;;;15.02;8.48;;;;;;;5.67;80.74;98310.63;5096983;28;20366;-72
2022/01/10 00:32:17;;;;;;;11.48;7.45;;;;;;;5.67;81.16;98297.63;5096667;28;20024;-70
2022/01/10 00:34:44;;;;;;;10.23;6.97;;;;;;;5.65;80.84;98294.44;5096698;28;20382;-71
2022/01/10 00:37:10;;;;;;;8.50;5.03;;;;;;;5.61;79.92;98293.59;5096808;28;20267;-70
2022/01/10 00:39:35;;;;;;;10.65;5.90;;;;;;;5.56;79.24;98288.41;5097177;28;20115;-71
2022/01/10 00:42:01;;;;;;;16.83;8.02;;;;;;;5.62;80.44;98295.19;5079733;28;20020;-70
2022/01/10 00:44:31;;;;;;;14.07;5.45;;;;;;;5.55;79.70;98294.31;5097418;28;20095;-70
2022/01/10 00:46:56;;;;;;;10.30;5.25;;;;;;;5.59;78.79;98301.44;5097281;28;20092;-70
2022/01/10 00:49:22;;;;;;;9.55;4.28;;;;;;;5.67;78.78;98297.63;5096311;28;20032;-70
2022/01/10 00:51:47;;;;;;;6.80;4.35;;;;;;;5.76;78.27;98287.09;5096134;28;20178;-71
2022/01/10 00:54:13;;;;;;;6.43;4.85;;;;;;;5.68;78.50;98284.63;5096558;28;20024;-70
2022/01/10 00:56:39;;;;;;;7.25;5.32;;;;;;;5.73;79.30;98296.09;5095888;28;20024;-70
2022/01/10 00:59:04;;;;;;;6.55;5.18;;;;;;;5.75;80.29;98301.25;5095882;28;20041;-71
2022/01/10 01:01:30;;;;;;;9.20;5.18;;;;;;;5.64;80.30;98297.56;5095797;28;20051;-70
2022/01/10 01:03:55;;;;;;;10.32;6.25;;;;;;;5.61;81.38;98288.09;5096627;28;20064;-71
2022/01/10 01:06:21;;;;;;;9.05;6.15;;;;;;;5.63;80.49;98296.78;5096051;28;20093;-70
2022/01/10 01:08:47;;;;;;;15.60;7.97;;;;;;;5.74;80.44;98302.41;5095772;28;20454;-70
2022/01/10 01:14:04;;;;;;;13.32;6.65;;;;;;;5.79;80.89;98296.56;5096842;28;20119;-70
2022/01/10 01:24:18;;;;;;;;;;;;;;;5.64;81.48;98290.06;5097708;28;20039;-70
2022/01/10 01:26:52;;;;;;;7.75;4.45;;;;;;;5.72;81.49;98283.50;5095361;28;19908;-71
2022/01/10 01:29:24;;;;;;;4.60;3.25;;;;;;;5.70;80.53;98277.56;5078852;28;20032;-71
2022/01/10 01:31:50;;;;;;;4.50;3.25;;;;;;;5.71;78.96;98275.59;5096803;28;20024;-71
2022/01/10 01:34:16;;;;;;;2.83;2.30;;;;;;;5.70;77.42;98269.28;5095357;28;20028;-71
2022/01/10 01:36:46;;;;;;;2.42;2.13;;;;;;;5.77;76.66;98274.88;5097457;28;20027;-71
2022/01/10 01:39:22;;;;;;;2.17;1.67;;;;;;;5.68;76.04;98270.81;5100298;28;20024;-71
2022/01/10 01:42:06;;;;;;;3.20;1.85;;;;;;;5.70;75.81;98268.47;5099233;28;20020;-70
2022/01/10 01:44:33;;;;;;;1.73;1.10;;;;;;;5.78;75.81;98281.19;5096125;28;20036;-70
2022/01/10 01:46:59;;;;;;;0.90;0.90;;;;;;;5.76;74.49;98272.50;5095378;28;20031;-69
2022/01/10 01:49:25;;;;;;;1.38;0.80;;;;;;;5.81;74.34;98269.41;5095035;28;20390;-71
2022/01/10 01:51:51;;;;;;;1.48;1.17;;;;;;;5.79;73.15;98266.22;5095511;28;20074;-70
2022/01/10 01:54:17;;;;;;;0.80;0.80;;;;;;;5.86;72.68;98271.00;5094904;28;20019;-70
2022/01/10 01:56:44;;;;;;;0.77;0.73;;;;;;;5.85;71.96;98270.22;5094809;28;20120;-70
2022/01/10 01:59:10;;;;;;;1.95;0.60;;;;;;;5.87;71.96;98269.84;5094804;28;20032;-70
2022/01/10 02:01:35;;;;;;;0.60;0.60;;;;;;;5.86;71.94;98271.00;5094715;28;20093;-70
2022/01/10 02:04:02;;;;;;;1.75;0.80;;;;;;;5.93;71.80;98276.66;5094667;28;20031;-71
2022/01/10 02:06:28;;;;;;;0.57;0.55;;;;;;;5.99;70.83;98275.13;5094612;28;20028;-70
2022/01/10 02:08:54;;;;;;;1.00;0.88;;;;;;;5.98;71.04;98276.31;5094575;28;20028;-70
2022/01/10 02:11:19;;;;;;;0.60;0.60;;;;;;;5.90;71.45;98263.56;5094556;28;20489;-70
2022/01/10 02:13:45;;;;;;;0.68;0.68;;;;;;;5.89;70.04;98267.50;5094405;28;20059;-70
2022/01/10 02:16:16;;;;;;;0.55;0.55;;;;;;;5.97;70.48;98266.44;5094375;28;20038;-70
2022/01/10 02:18:42;;;;;;;2.58;0.57;;;;;;;5.97;70.23;98258.16;5096216;28;20173;-70
2022/01/10 02:21:09;;;;;;;1.90;0.57;;;;;;;6.04;69.78;98255.47;5094640;28;20111;-70
2022/01/10 02:23:35;;;;;;;0.60;0.60;;;;;;;5.96;68.88;98256.56;5094860;28;20028;-70
2022/01/10 02:26:01;;;;;;;1.00;0.80;;;;;;;5.98;70.38;98251.47;5094970;28;20524;-70
2022/01/10 02:28:29;;;;;;;0.95;0.60;;;;;;;5.91;68.91;98241.16;5094624;28;20085;-70
2022/01/10 02:30:58;;;;;;;0.70;0.70;;;;;;;5.96;69.28;98240.00;5094352;28;20028;-70
2022/01/10 02:33:31;;;;;;;0.52;0.52;;;;;;;5.89;70.16;98237.13;5094262;28;20032;-71
2022/01/10 02:36:12;;;;;;;0.85;0.63;;;;;;;5.71;69.02;98218.44;5094424;28;20479;-71
2022/01/10 02:38:48;;;;;;;0.70;0.70;;;;;;;5.88;69.18;98230.03;5094302;28;20028;-70
2022/01/10 02:41:33;;;;;;;0.50;0.50;;;;;;;5.89;68.72;98253.69;5094186;28;20064;-70
2022/01/10 02:44:03;;;;;;;0.60;0.60;;;;;;;5.89;68.64;98245.41;5094716;28;20024;-70
2022/01/10 02:46:41;;;;;;;0.47;0.47;;;;;;;5.84;68.55;98248.53;5094557;28;20028;-70
2022/01/10 02:49:16;;;;;;;0.40;0.40;;;;;;;5.87;67.31;98250.53;5094832;28;20024;-70
2022/01/10 02:51:42;;;;;;;0.30;0.30;;;;;;;5.89;68.00;98250.94;5094933;28;20024;-70
2022/01/10 02:54:14;;;;;;;0.40;0.40;;;;;;;5.94;66.55;98245.13;5094115;28;20036;-70
2022/01/10 02:56:57;;;;;;;0.30;0.30;;;;;;;5.67;67.08;98223.13;5095808;28;20508;-70
2022/01/10 02:59:25;;;;;;;0.40;0.40;;;;;;;5.75;67.34;98244.13;5093831;28;20028;-70
2022/01/10 03:01:52;;;;;;;0.30;0.30;;;;;;;5.79;67.75;98247.69;5094920;28;20024;-70
2022/01/10 03:04:18;;;;;;;0.30;0.30;;;;;;;5.79;66.80;98244.91;5094045;28;20081;-70
2022/01/10 03:06:45;;;;;;;0.22;0.22;;;;;;;5.73;67.36;98240.91;5094563;28;20036;-70
2022/01/10 03:09:12;;;;;;;0.30;0.30;;;;;;;5.80;67.56;98251.22;5093974;28;20389;-70
2022/01/10 03:11:41;;;;;;;0.43;0.40;;;;;;;5.65;68.35;98228.22;5095041;28;20031;-70
2022/01/10 03:14:08;;;;;;;0.40;0.40;;;;;;;5.79;67.97;98250.44;5093608;28;20044;-70
2022/01/10 03:16:34;;;;;;;0.30;0.30;;;;;;;5.77;67.12;98241.75;5094821;28;20481;-70
2022/01/10 03:19:00;;;;;;;0.22;0.22;;;;;;;5.78;67.24;98237.81;5095536;28;20031;-70
2022/01/10 03:21:26;;;;;;;0.40;0.40;;;;;;;5.77;67.35;98236.25;5094233;28;20039;-70
2022/01/10 03:23:55;;;;;;;0.43;0.43;;;;;;;5.73;67.56;98235.41;5094971;28;20028;-70
2022/01/10 03:26:21;;;;;;;1.30;0.98;;;;;;;5.72;66.96;98236.56;5094196;28;20105;-70
2022/01/10 03:28:47;;;;;;;1.48;1.30;;;;;;;5.76;67.63;98234.66;5093492;28;20474;-70
2022/01/10 03:31:13;;;;;;;16.63;6.80;;;;;;;5.80;68.19;98229.16;5094079;28;20030;-70
2022/01/10 03:33:38;;;;;;;0.47;0.47;;;;;;;5.79;66.88;98233.09;5093696;28;20035;-70
2022/01/10 03:36:07;;;;;;;0.30;0.30;;;;;;;5.74;67.29;98234.22;5093237;28;20020;-70
2022/01/10 03:38:36;;;;;;;0.73;0.40;;;;;;;5.60;67.51;98230.53;5093948;28;20119;-70
2022/01/10 03:41:09;;;;;;;0.32;0.30;;;;;;;5.76;67.64;98237.41;5092759;28;20111;-70
2022/01/10 03:43:35;;;;;;;0.70;0.70;;;;;;;5.76;67.86;98240.19;5094679;28;20050;-70
2022/01/10 03:46:01;;;;;;;1.65;1.00;;;;;;;5.78;67.93;98253.59;5093837;28;20435;-70
2022/01/10 03:48:27;;;;;;;3.30;2.22;;;;;;;5.74;69.55;98241.72;5093967;28;20378;-70
2022/01/10 03:50:52;;;;;;;0.80;0.80;;;;;;;5.59;68.83;98232.47;5092585;28;20474;-70
2022/01/10 03:53:18;;;;;;;0.40;0.40;;;;;;;5.60;69.20;98236.84;5092777;28;20040;-70
2022/01/10 03:55:43;;;;;;;0.65;0.65;;;;;;;5.58;68.75;98252.97;5093175;28;20118;-70
2022/01/10 03:58:09;;;;;;;1.30;1.30;;;;;;;5.57;69.51;98254.13;5092670;28;20028;-70
2022/01/10 04:00:34;;;;;;;0.68;0.65;;;;;;;5.65;69.62;98263.31;5092366;28;20071;-70
2022/01/10 04:03:05;;;;;;;0.50;0.50;;;;;;;5.54;70.61;98260.44;5092607;28;20067;-70
2022/01/10 04:05:30;;;;;;;0.40;0.40;;;;;;;5.53;71.40;98264.34;5092908;28;20031;-70
2022/01/10 04:07:56;;;;;;;0.50;0.50;;;;;;;5.51;72.25;98273.00;5093221;28;20032;-70
2022/01/10 04:10:21;;;;;;;0.30;0.30;;;;;;;5.44;71.85;98267.41;5092859;28;20039;-70
2022/01/10 04:12:47;;;;;;;0.45;0.45;;;;;;;5.38;72.08;98265.31;5092201;28;20464;-71
2022/01/10 04:15:13;;;;;;;0.40;0.40;;;;;;;5.35;72.40;98277.91;5093007;28;20035;-70
2022/01/10 04:17:38;;;;;;;1.55;0.80;;;;;;;5.36;72.42;98265.69;5092478;28;20565;-70
2022/01/10 04:20:05;;;;;;;1.08;0.98;;;;;;;5.33;71.84;98271.97;5092430;28;20024;-71
2022/01/10 04:22:30;;;;;;;0.90;0.80;;;;;;;5.29;71.03;98270.34;5092450;28;20031;-70
2022/01/10 04:24:56;;;;;;;1.30;0.70;;;;;;;5.22;71.08;98285.63;5092498;28;20024;-71
2022/01/10 04:27:22;;;;;;;2.90;1.38;;;;;;;5.25;71.08;98287.63;5092468;28;20020;-70
2022/01/10 04:29:47;;;;;;;2.97;1.40;;;;;;;5.27;72.19;98281.72;5091998;28;20032;-72
2022/01/10 04:32:13;;;;;;;1.08;0.68;;;;;;;5.25;71.97;98286.84;5092025;28;20032;-70
2022/01/10 04:34:40;;;;;;;0.45;0.45;;;;;;;5.13;72.40;98273.28;5092687;28;20119;-71
2022/01/10 04:37:07;;;;;;;0.68;0.68;;;;;;;5.23;71.66;98300.22;5092353;28;20024;-71
2022/01/10 04:39:33;;;;;;;0.60;0.60;;;;;;;5.31;71.78;98304.63;5092359;28;20016;-70
2022/01/10 04:41:58;;;;;;;0.30;0.30;;;;;;;5.24;72.10;98301.78;5092603;28;20370;-70
2022/01/10 04:44:24;;;;;;;0.50;0.50;;;;;;;5.23;71.68;98309.28;5092272;28;20115;-70
2022/01/10 04:46:51;;;;;;;1.95;0.88;;;;;;;5.33;73.45;98316.09;5092314;28;20035;-70
2022/01/10 04:49:26;;;;;;;0.70;0.70;;;;;;;5.32;74.71;98314.50;5092784;28;20026;-71
2022/01/10 04:51:53;;;;;;;1.02;0.93;;;;;;;5.32;74.70;98324.72;5092213;28;20500;-71
2022/01/10 04:54:20;;;;;;;1.00;0.70;;;;;;;5.35;74.89;98324.78;5091979;28;20032;-71
2022/01/10 04:56:46;;;;;;;0.40;0.40;;;;;;;5.18;74.27;98320.63;5092108;28;20020;-71
2022/01/10 04:59:12;;;;;;;0.38;0.38;;;;;;;5.19;74.32;98333.22;5092713;28;20032;-71
2022/01/10 05:01:39;;;;;;;0.30;0.30;;;;;;;5.18;74.56;98331.66;5093414;28;20052;-71
2022/01/10 05:04:04;;;;;;;0.50;0.50;;;;;;;5.03;75.53;98326.28;5091480;28;20078;-71
2022/01/10 05:06:30;;;;;;;1.00;0.70;;;;;;;4.94;76.97;98326.53;5092625;28;20020;-70
2022/01/10 05:08:55;;;;;;;0.75;0.50;;;;;;;5.00;76.69;98336.09;5092578;28;20452;-71
2022/01/10 05:11:21;;;;;;;0.40;0.40;;;;;;;4.91;76.47;98336.38;5091902;28;20043;-70
2022/01/10 05:13:48;;;;;;;0.40;0.40;;;;;;;4.93;76.52;98342.28;5096044;28;20111;-70
2022/01/10 05:16:14;;;;;;;1.30;0.65;;;;;;;4.93;77.30;98335.97;5100671;28;20035;-70
2022/01/10 05:18:40;;;;;;;0.50;0.50;;;;;;;4.94;77.59;98335.59;5099555;28;20474;-70
2022/01/10 05:21:06;;;;;;;0.90;0.60;;;;;;;4.92;78.04;98339.91;5095643;28;20038;-70
2022/01/10 05:23:32;;;;;;;0.32;0.32;;;;;;;4.84;77.62;98349.22;5096905;28;20090;-70
2022/01/10 05:25:58;;;;;;;0.77;0.57;;;;;;;4.83;77.57;98351.19;5095543;28;20044;-70
2022/01/10 05:28:24;;;;;;;1.85;0.50;;;;;;;4.86;77.69;98353.22;5095373;28;20039;-70
2022/01/10 05:30:51;;;;;;;1.20;0.70;;;;;;;4.79;78.18;98346.78;5095298;28;20044;-70
2022/01/10 05:33:17;;;;;;;0.95;0.50;;;;;;;4.85;77.19;98353.59;5097050;28;20032;-70
2022/01/10 05:35:44;;;;;;;0.40;0.40;;;;;;;4.72;77.95;98356.53;5095480;28;20028;-70
2022/01/10 05:38:11;;;;;;;0.50;0.50;;;;;;;4.72;77.55;98356.53;5097052;28;20036;-70
2022/01/10 05:40:37;;;;;;;0.40;0.40;;;;;;;4.71;77.01;98367.91;5095265;28;20054;-70
2022/01/10 05:43:03;;;;;;;0.40;0.40;;;;;;;4.60;78.40;98362.22;5095099;28;20093;-70
2022/01/10 05:45:28;;;;;;;0.70;0.70;;;;;;;4.69;79.01;98370.25;5095300;28;20044;-70
2022/01/10 05:47:54;;;;;;;1.33;0.57;;;;;;;4.67;78.05;98378.88;5095414;28;20056;-70
2022/01/10 05:50:32;;;;;;;0.50;0.50;;;;;;;4.59;78.15;98384.63;5095097;28;20474;-70
2022/01/10 05:52:59;;;;;;;0.77;0.77;;;;;;;4.67;78.99;98384.38;5096389;28;20032;-70
2022/01/10 05:55:25;;;;;;;1.00;0.90;;;;;;;4.70;80.57;98385.63;5095826;28;20028;-71
2022/01/10 05:57:51;;;;;;;2.17;0.70;;;;;;;4.69;79.92;98387.56;5095457;28;20032;-70
2022/01/10 06:00:17;;;;;;;0.60;0.60;;;;;;;4.71;80.65;98400.97;5078353;28;20531;-71
2022/01/10 06:02:42;;;;;;;0.70;0.70;;;;;;;4.69;81.08;98403.31;5094743;28;20028;-70
2022/01/10 06:05:09;;;;;;;0.65;0.65;;;;;;;4.68;82.07;98394.22;5095014;28;20039;-70
2022/01/10 06:07:38;;;;;;;0.95;0.88;;;;;;;4.68;81.17;98413.50;5096739;28;20028;-71
2022/01/10 06:10:05;;;;;;;0.77;0.70;;;;;;;4.66;81.14;98410.34;5094308;28;20032;-70
2022/01/10 06:12:32;;;;;;;0.50;0.50;;;;;;;4.62;81.81;98398.44;5095811;28;20048;-70
2022/01/10 06:14:57;;;;;;;0.88;0.63;;;;;;;4.63;81.57;98416.56;5094519;28;20056;-70
2022/01/10 06:17:23;;;;;;;1.05;0.73;;;;;;;4.61;82.04;98407.88;5094403;28;20121;-70
2022/01/10 06:19:49;;;;;;;0.60;0.60;;;;;;;4.47;82.25;98413.13;5094388;28;20031;-70
2022/01/10 06:22:14;;;;;;;0.70;0.70;;;;;;;4.55;82.89;98414.06;5094888;28;20031;-70
2022/01/10 06:24:40;;;;;;;0.82;0.82;;;;;;;4.54;83.90;98415.22;5093422;28;20034;-70
2022/01/10 06:27:06;;;;;;;1.88;1.27;;;;;;;4.34;84.02;98408.94;5094271;28;20028;-70
2022/01/10 06:29:31;;;;;;;1.23;1.08;;;;;;;4.45;84.58;98431.97;5094722;28;20383;-70
2022/01/10 06:31:57;;;;;;;1.48;1.13;;;;;;;4.36;84.78;98428.66;5094152;28;20441;-70
2022/01/10 06:34:23;;;;;;;0.90;0.90;;;;;;;4.37;85.38;98416.50;5094097;28;20028;-71
2022/01/10 06:36:48;;;;;;;1.00;0.73;;;;;;;4.38;85.33;98420.84;5093779;28;20044;-70
2022/01/10 06:39:14;;;;;;;6.57;1.00;;;;;;;4.36;85.20;98420.38;5094023;28;20070;-70
2022/01/10 06:41:39;;;;;;;2.92;1.75;;;;;;;4.38;84.29;98426.34;5094013;28;20067;-70
2022/01/10 06:44:05;;;;;;;7.53;3.65;;;;;;;4.41;84.48;98425.59;5094280;28;20035;-70
2022/01/10 06:46:30;;;;;;;3.83;1.98;;;;;;;4.36;84.07;98428.66;5094217;28;20066;-70
2022/01/10 06:48:56;;;;;;;3.03;1.73;;;;;;;4.34;84.86;98418.00;5094110;28;20509;-70
2022/01/10 06:51:22;;;;;;;3.33;2.03;;;;;;;4.28;85.02;98427.72;5093770;28;20031;-70
2022/01/10 06:53:47;;;;;;;3.40;1.55;;;;;;;4.38;84.52;98431.84;5093696;28;20032;-70
2022/01/10 06:56:13;;;;;;;5.97;2.42;;;;;;;4.39;84.13;98439.75;5093408;28;20161;-70
2022/01/10 06:58:41;;;;;;;3.53;2.40;;;;;;;4.46;84.47;98444.59;5094007;28;20081;-71
2022/01/10 07:01:07;;;;;;;3.35;1.90;;;;;;;4.42;84.71;98457.47;5093908;28;20024;-70
2022/01/10 07:03:33;;;;;;;2.05;1.63;;;;;;;4.43;84.31;98446.13;5093837;28;20032;-70
2022/01/10 07:05:59;;;;;;;2.80;1.65;;;;;;;4.43;83.09;98445.31;5094063;28;20359;-71
2022/01/10 07:08:24;;;;;;;2.60;1.80;;;;;;;4.50;83.00;98450.97;5093798;28;20055;-71
2022/01/10 07:10:50;;;;;;;1.92;1.45;;;;;;;4.60;81.18;98444.84;5093180;28;20442;-70
2022/01/10 07:13:15;;;;;;;1.75;1.65;;;;;;;4.68;80.20;98456.78;5093251;28;20109;-70
2022/01/10 07:15:44;;;;;;;3.22;2.08;;;;;;;4.66;80.26;98448.91;5093202;28;20038;-70
2022/01/10 07:18:09;;;;;;;4.78;1.42;;;;;;;4.70;80.34;98460.78;5093070;28;20028;-70
2022/01/10 07:20:35;;;;;;;3.50;2.10;;;;;;;4.70;80.89;98465.50;5093238;28;20097;-70
2022/01/10 07:23:01;;;;;;;4.57;3.58;;;;;;;4.73;80.75;98473.81;5093188;28;20035;-70
2022/01/10 07:25:26;;;;;;;7.82;3.05;;;;;;;4.68;81.51;98460.34;5092806;28;20036;-70
2022/01/10 07:27:54;;;;;;;3.30;2.75;;;;;;;4.79;80.81;98468.00;5093393;28;20032;-70
2022/01/10 07:30:22;;;;;;;6.57;4.53;;;;;;;4.90;79.47;98469.81;5093135;28;20100;-70
2022/01/10 07:32:48;;;;;;;5.25;3.00;;;;;;;4.93;78.47;98466.31;5093156;28;20039;-70
2022/01/10 07:35:14;;;;;;;8.00;5.20;;;;;;;4.86;78.76;98448.88;5093536;28;20038;-70
2022/01/10 07:37:39;;;;;;;8.68;4.38;;;;;;;5.07;79.18;98468.53;5093044;28;20028;-71
2022/01/10 07:40:06;;;;;;;6.63;3.45;;;;;;;5.15;78.23;98461.16;5094241;28;20454;-70
2022/01/10 07:42:31;;;;;;;3.65;2.38;;;;;;;5.26;77.36;98465.69;5090275;28;20081;-71
2022/01/10 07:44:57;;;;;;;7.63;3.45;;;;;;;5.37;77.31;98454.03;5092888;28;20535;-71
2022/01/10 07:47:23;;;;;;;7.75;2.83;;;;;;;5.38;75.67;98447.34;5092787;28;20031;-70
2022/01/10 07:49:48;;;;;;;8.63;4.25;;;;;;;5.50;75.65;98463.72;5092725;28;20117;-70
2022/01/10 07:52:14;;;;;;;5.47;3.60;;;;;;;5.61;75.47;98448.13;5092631;28;20120;-70
2022/01/10 07:54:40;;;;;;;8.60;4.00;;;;;;;5.69;74.58;98444.28;5092660;28;20036;-70
2022/01/10 07:57:06;;;;;;;3.25;2.63;;;;;;;5.77;72.70;98434.94;5093632;28;20028;-70
2022/01/10 07:59:31;;;;;;;3.85;3.30;;;;;;;5.92;72.02;98463.56;5092570;28;20039;-70
2022/01/10 08:01:57;;;;;;;6.28;3.30;;;;;;;6.09;68.04;98434.59;5092839;28;20042;-70
2022/01/10 08:04:23;;;;;;;26.98;12.32;;;;;;;6.15;69.30;98457.94;5092604;28;20382;-70
2022/01/10 08:06:48;;;;;;;20.58;12.15;;;;;;;6.08;69.22;98440.50;5092547;28;20032;-70
2022/01/10 08:09:14;;;;;;;25.05;12.93;;;;;;;6.00;69.56;98423.03;5092541;28;20035;-70
2022/01/10 08:11:39;;;;;;;19.77;9.25;;;;;;;6.16;68.18;98439.41;5092751;28;20028;-70
2022/01/10 08:14:05;;;;;;;15.55;8.60;;;;;;;6.25;66.61;98446.25;5092062;28;20044;-70
2022/01/10 08:16:31;;;;;;;5.30;3.00;;;;;;;6.36;65.61;98456.63;5092726;28;20035;-70
2022/01/10 08:18:56;;;;;;;5.55;3.30;;;;;;;6.42;65.22;98463.41;5092838;28;20039;-70
2022/01/10 08:21:22;;;;;;;5.60;3.58;;;;;;;6.53;64.51;98458.78;5092202;28;20475;-70
2022/01/10 08:23:48;;;;;;;5.78;3.60;;;;;;;6.55;61.99;98462.78;5093555;28;20062;-70
2022/01/10 08:26:14;;;;;;;4.50;2.72;;;;;;;6.63;60.65;98447.06;5093053;28;20107;-70
2022/01/10 08:28:40;;;;;;;6.47;3.33;;;;;;;6.77;61.60;98447.22;5092792;28;20035;-70
2022/01/10 08:31:05;;;;;;;5.60;3.30;;;;;;;6.87;59.25;98453.22;5093141;28;20024;-70
2022/01/10 08:33:31;;;;;;;5.90;3.38;;;;;;;6.99;60.04;98461.25;5094437;28;20028;-70
2022/01/10 08:35:58;;;;;;;5.68;3.42;;;;;;;7.09;58.51;98455.81;5093806;28;20111;-70
2022/01/10 08:38:23;;;;;;;10.43;4.43;;;;;;;7.28;58.87;98470.59;5092304;28;20036;-70
2022/01/10 08:40:49;;;;;;;13.70;5.55;;;;;;;7.54;58.56;98480.69;5092625;28;20028;-70
2022/01/10 08:43:16;;;;;;;5.28;2.80;;;;;;;7.55;56.40;98479.50;5092379;28;20476;-70
2022/01/10 08:45:42;;;;;;;6.68;2.35;;;;;;;7.40;56.38;98455.66;5094463;28;20184;-69
2022/01/10 08:48:09;;;;;;;5.30;3.10;;;;;;;7.44;55.64;98486.94;5099757;28;20493;-70
2022/01/10 08:50:35;;;;;;;4.15;2.75;;;;;;;7.59;54.94;98491.41;5103405;28;20470;-69
2022/01/10 08:53:07;;;;;;;3.95;2.80;;;;;;;7.71;54.74;98493.84;5096798;28;20462;-70
2022/01/10 08:55:33;;;;;;;6.95;3.58;;;;;;;7.76;54.81;98485.19;5096227;28;20020;-70
2022/01/10 08:58:00;;;;;;;6.38;4.75;;;;;;;8.00;53.60;98507.91;5096631;28;20118;-70
2022/01/10 09:00:26;;;;;;;9.10;4.28;;;;;;;8.56;52.86;98514.94;5096269;28;20414;-70
2022/01/10 09:02:52;;;;;;;9.60;3.92;;;;;;;8.40;52.59;98518.81;5094593;28;20058;-70
2022/01/10 09:05:18;;;;;;;4.20;2.65;;;;;;;8.00;51.89;98513.44;5095858;28;20050;-69
2022/01/10 09:07:43;;;;;;;7.63;3.60;;;;;;;8.07;52.60;98528.13;5095770;28;20130;-70
2022/01/10 09:10:09;;;;;;;6.22;3.60;;;;;;;7.90;53.49;98522.47;5095443;28;20122;-69
2022/01/10 09:12:34;;;;;;;10.70;3.50;;;;;;;7.89;52.54;98530.00;5094931;28;20079;-70
2022/01/10 09:15:00;;;;;;;7.30;5.05;;;;;;;7.87;53.57;98529.56;5096431;28;20085;-70
2022/01/10 09:17:27;;;;;;;6.72;3.92;;;;;;;7.97;53.21;98516.97;5096122;28;20024;-70
2022/01/10 09:19:53;;;;;;;6.82;4.07;;;;;;;8.10;52.92;98521.03;5096120;28;20020;-70
2022/01/10 09:22:18;;;;;;;5.75;3.25;;;;;;;8.39;52.86;98533.88;5095051;28;20394;-72
2022/01/10 09:24:46;;;;;;;9.05;4.55;;;;;;;8.65;51.09;98545.88;5097308;28;20042;-69
2022/01/10 09:27:14;;;;;;;9.10;3.38;;;;;;;8.65;50.81;98534.78;5094608;28;20093;-71
2022/01/10 09:29:40;;;;;;;7.45;3.10;;;;;;;8.74;51.11;98526.13;5095841;28;20059;-70
2022/01/10 09:32:09;;;;;;;8.82;5.28;;;;;;;9.24;50.47;98554.00;5095328;28;20036;-70
2022/01/10 09:34:35;;;;;;;7.15;3.67;;;;;;;9.19;49.18;98555.97;5096529;28;20024;-70
2022/01/10 09:37:01;;;;;;;11.23;5.18;;;;;;;8.83;50.33;98549.50;5095594;28;20386;-70
2022/01/10 09:39:27;;;;;;;8.65;4.75;;;;;;;8.97;49.62;98553.53;5095166;28;20466;-70
2022/01/10 09:41:53;;;;;;;7.50;3.85;;;;;;;9.75;47.88;98556.44;5078448;28;20035;-70
2022/01/10 09:44:19;;;;;;;8.10;3.78;;;;;;;9.77;48.32;98564.38;5095069;28;20047;-70
2022/01/10 09:46:48;;;;;;;4.35;3.53;;;;;;;9.22;48.41;98562.72;5095528;28;20043;-70
2022/01/10 09:49:13;;;;;;;8.20;3.60;;;;;;;9.28;48.39;98540.91;5094871;28;20031;-70
2022/01/10 09:51:39;;;;;;;9.93;3.95;;;;;;;9.35;47.95;98544.50;5094984;28;20107;-71
2022/01/10 09:54:05;;;;;;;7.50;4.22;;;;;;;9.39;48.32;98559.19;5096662;28;20051;-69
2022/01/10 09:56:31;;;;;;;6.07;3.45;;;;;;;9.06;47.22;98565.84;5094712;28;20459;-69
2022/01/10 09:58:59;;;;;;;9.00;4.97;;;;;;;9.57;47.33;98534.19;5077793;28;20021;-70
2022/01/10 10:01:26;;;;;;;10.30;4.03;;;;;;;9.90;46.51;98532.19;5094706;28;20024;-70
2022/01/10 10:03:53;;;;;;;6.07;3.85;;;;;;;9.89;46.35;98536.19;5094783;28;20016;-71
2022/01/10 10:06:19;;;;;;;5.43;2.53;;;;;;;9.50;46.31;98552.84;5094675;28;20028;-71
2022/01/10 10:08:46;;;;;;;6.32;4.30;;;;;;;10.06;45.79;98517.91;5095250;28;20024;-71
2022/01/10 10:11:15;;;;;;;6.10;4.03;;;;;;;9.84;45.00;98536.56;5094906;28;20123;-71
2022/01/10 10:13:51;;;;;;;7.25;4.47;;;;;;;9.67;46.71;98549.28;5095703;28;20044;-71
2022/01/10 10:16:18;;;;;;;6.03;3.20;;;;;;;9.40;45.43;98541.31;5094385;28;20024;-69
2022/01/10 10:18:46;;;;;;;5.75;3.50;;;;;;;9.55;45.96;98555.22;5094675;28;20122;-71
2022/01/10 10:21:16;;;;;;;7.75;3.78;;;;;;;8.86;46.14;98545.16;5094962;28;20074;-70
2022/01/10 10:23:46;;;;;;;4.72;3.13;;;;;;;8.66;46.63;98553.00;5094269;28;20024;-69
2022/01/10 10:26:21;;;;;;;5.57;3.22;;;;;;;8.44;47.38;98568.75;5094354;28;20039;-71
2022/01/10 10:28:48;;;;;;;12.70;6.05;;;;;;;8.45;48.63;98547.38;5094288;28;20032;-71
2022/01/10 10:31:24;;;;;;;9.30;4.78;;;;;;;8.55;48.96;98547.41;5093930;28;20055;-71
2022/01/10 10:33:51;;;;;;;5.53;4.15;;;;;;;8.34;48.63;98539.75;5094747;28;20382;-69
2022/01/10 10:36:17;;;;;;;7.85;3.83;;;;;;;8.31;47.37;98520.31;5094964;28;20419;-69
2022/01/10 10:38:44;;;;;;;4.75;3.25;;;;;;;8.12;47.53;98515.88;5095278;28;20035;-69
2022/01/10 10:41:10;;;;;;;5.70;4.10;;;;;;;8.06;48.42;98506.34;5094156;28;20024;-71
2022/01/10 10:43:38;;;;;;;7.78;4.55;;;;;;;8.02;48.85;98525.72;5094204;28;20382;-70
2022/01/10 10:46:12;;;;;;;9.00;4.20;;;;;;;8.09;48.94;98530.50;5094146;28;20485;-71
2022/01/10 10:48:40;;;;;;;4.78;3.58;;;;;;;8.04;47.75;98512.28;5093873;28;20028;-70
2022/01/10 10:51:06;;;;;;;7.65;4.32;;;;;;;7.97;48.75;98515.00;5093788;28;20470;-69
2022/01/10 10:53:31;;;;;;;8.30;5.47;;;;;;;7.98;49.45;98526.88;5094276;28;20447;-70
2022/01/10 10:55:59;;;;;;;7.30;4.15;;;;;;;7.97;47.11;98515.00;5093884;28;20031;-69
2022/01/10 10:58:26;;;;;;;11.90;5.82;;;;;;;8.01;48.39;98529.66;5093947;28;20031;-70
2022/01/10 11:00:55;;;;;;;8.73;4.32;;;;;;;8.06;48.44;98531.28;5094425;28;20404;-70
2022/01/10 11:03:22;;;;;;;8.98;4.53;;;;;;;8.00;48.79;98532.84;5093381;28;20043;-69
2022/01/10 11:05:48;;;;;;;8.73;4.00;;;;;;;8.06;48.22;98525.75;5094496;28;20027;-71
2022/01/10 11:08:15;;;;;;;7.60;4.65;;;;;;;8.12;48.19;98536.06;5093765;28;20463;-71
2022/01/10 11:10:41;;;;;;;5.65;3.55;;;;;;;7.86;47.39;98505.81;5076479;28;20137;-71
2022/01/10 11:13:08;;;;;;;13.82;4.55;;;;;;;7.89;47.47;98538.31;5094771;28;20072;-71
2022/01/10 11:15:38;;;;;;;9.05;5.75;;;;;;;7.94;47.90;98542.69;5095008;28;20430;-72
2022/01/10 11:18:06;;;;;;;7.28;4.40;;;;;;;7.94;48.07;98542.69;5077324;28;20032;-71
2022/01/10 11:20:46;;;;;;;7.80;4.25;;;;;;;7.92;47.97;98531.97;5093680;28;20058;-72
2022/01/10 11:23:12;;;;;;;7.15;4.55;;;;;;;7.90;47.61;98539.09;5093626;28;20035;-70
2022/01/10 11:25:40;;;;;;;18.40;9.73;;;;;;;7.98;48.34;98541.50;5093565;28;20122;-70
2022/01/10 11:28:12;;;;;;;6.38;4.45;;;;;;;7.91;46.94;98541.47;5093032;28;20031;-71
2022/01/10 11:30:42;;;;;;;8.45;4.75;;;;;;;7.68;47.13;98504.91;5093598;28;20020;-69
2022/01/10 11:33:22;;;;;;;6.10;3.90;;;;;;;7.88;46.67;98536.69;5092978;28;20085;-69
2022/01/10 11:35:52;;;;;;;9.32;6.00;;;;;;;7.96;46.24;98532.81;5094468;28;20024;-70
2022/01/10 11:38:25;;;;;;;8.63;5.32;;;;;;;7.94;47.03;98535.16;5092940;28;20032;-69
2022/01/10 11:41:17;;;;;;;8.45;4.68;;;;;;;7.81;47.02;98525.56;5093528;28;20063;-69
2022/01/10 11:44:06;;;;;;;5.55;4.18;;;;;;;7.83;46.34;98537.06;5082878;28;20035;-70
2022/01/10 11:46:51;;;;;;;13.10;5.65;;;;;;;7.81;46.52;98551.28;5094313;28;20028;-69
2022/01/10 11:49:21;;;;;;;10.18;6.40;;;;;;;7.75;46.98;98521.56;5094078;28;20028;-69
2022/01/10 11:51:50;;;;;;;9.05;5.80;;;;;;;7.89;47.41;98549.38;5092715;28;20027;-69